sensor_id;sensor_type;location;lat;lon;timestamp;temperature;humidity
21487;DHT22;10905;50.822;4.336;2022-09-03T00:00:19;21.20;99.90
21487;DHT22;10905;50.822;4.336;2022-09-03T00:08:05;21.80;99.90
21487;DHT22;10905;50.822;4.336;2022-09-03T00:10:41;21.80;99.90
21487;DHT22;10905;50.822;4.336;2022-09-03T00:13:09;21.70;99.90
21487;DHT22;10905;50.822;4.336;2022-09-03T00:15:38;21.70;99.90
21487;DHT22;10905;50.822;4.336;2022-09-03T00:18:06;21.90;99.90
21487;DHT22;10905;50.822;4.336;2022-09-03T00:20:36;21.90;99.90
21487;DHT22;10905;50.822;4.336;2022-09-03T00:23:03;21.80;99.90
21487;DHT22;10905;50.822;4.336;2022-09-03T00:28:31;21.70;99.90
21487;DHT22;10905;50.822;4.336;2022-09-03T00:31:04;21.80;99.90
21487;DHT22;10905;50.822;4.336;2022-09-03T00:33:31;21.70;99.90
21487;DHT22;10905;50.822;4.336;2022-09-03T00:38:28;21.80;99.90
21487;DHT22;10905;50.822;4.336;2022-09-03T00:46:41;21.70;99.90
21487;DHT22;10905;50.822;4.336;2022-09-03T01:01:56;21.50;99.90
21487;DHT22;10905;50.822;4.336;2022-09-03T01:04:38;21.50;99.90
21487;DHT22;10905;50.822;4.336;2022-09-03T01:12:25;21.50;99.90
21487;DHT22;10905;50.822;4.336;2022-09-03T01:15:18;21.40;99.90
21487;DHT22;10905;50.822;4.336;2022-09-03T01:17:49;21.40;99.90
21487;DHT22;10905;50.822;4.336;2022-09-03T01:20:26;21.20;99.90
21487;DHT22;10905;50.822;4.336;2022-09-03T01:28:09;21.10;99.90
21487;DHT22;10905;50.822;4.336;2022-09-03T01:30:41;21.20;99.90
21487;DHT22;10905;50.822;4.336;2022-09-03T01:33:19;21.20;99.90
21487;DHT22;10905;50.822;4.336;2022-09-03T01:45:54;21.40;99.90
21487;DHT22;10905;50.822;4.336;2022-09-03T01:48:41;21.40;99.90
21487;DHT22;10905;50.822;4.336;2022-09-03T01:59:12;21.30;99.90
21487;DHT22;10905;50.822;4.336;2022-09-03T02:01:44;21.40;99.90
21487;DHT22;10905;50.822;4.336;2022-09-03T02:04:17;21.40;99.90
21487;DHT22;10905;50.822;4.336;2022-09-03T02:06:44;21.40;99.90
21487;DHT22;10905;50.822;4.336;2022-09-03T02:09:13;21.30;99.90
21487;DHT22;10905;50.822;4.336;2022-09-03T02:11:39;21.40;99.90
21487;DHT22;10905;50.822;4.336;2022-09-03T02:14:05;21.30;99.90
21487;DHT22;10905;50.822;4.336;2022-09-03T02:16:31;21.30;99.90
21487;DHT22;10905;50.822;4.336;2022-09-03T02:19:01;21.30;99.90
21487;DHT22;10905;50.822;4.336;2022-09-03T02:21:30;21.30;99.90
21487;DHT22;10905;50.822;4.336;2022-09-03T02:23:57;21.30;99.90
21487;DHT22;10905;50.822;4.336;2022-09-03T02:26:23;21.30;99.90
21487;DHT22;10905;50.822;4.336;2022-09-03T02:28:49;21.20;99.90
21487;DHT22;10905;50.822;4.336;2022-09-03T02:31:14;21.30;99.90
21487;DHT22;10905;50.822;4.336;2022-09-03T02:33:42;21.30;99.90
21487;DHT22;10905;50.822;4.336;2022-09-03T02:36:10;21.30;99.90
21487;DHT22;10905;50.822;4.336;2022-09-03T02:38:36;21.30;99.90
21487;DHT22;10905;50.822;4.336;2022-09-03T02:41:02;21.30;99.90
21487;DHT22;10905;50.822;4.336;2022-09-03T02:46:09;21.20;99.90
21487;DHT22;10905;50.822;4.336;2022-09-03T02:48:36;21.20;99.90
21487;DHT22;10905;50.822;4.336;2022-09-03T02:51:02;21.30;99.90
21487;DHT22;10905;50.822;4.336;2022-09-03T02:53:27;21.30;99.90
21487;DHT22;10905;50.822;4.336;2022-09-03T02:55:57;21.30;99.90
21487;DHT22;10905;50.822;4.336;2022-09-03T02:58:23;21.30;99.90
21487;DHT22;10905;50.822;4.336;2022-09-03T03:00:48;21.30;99.90
21487;DHT22;10905;50.822;4.336;2022-09-03T03:03:14;21.30;99.90
21487;DHT22;10905;50.822;4.336;2022-09-03T03:08:05;21.40;99.90
21487;DHT22;10905;50.822;4.336;2022-09-03T03:10:31;21.50;99.90
21487;DHT22;10905;50.822;4.336;2022-09-03T03:12:56;21.40;99.90
21487;DHT22;10905;50.822;4.336;2022-09-03T03:15:22;21.30;99.90
21487;DHT22;10905;50.822;4.336;2022-09-03T03:17:47;21.40;99.90
21487;DHT22;10905;50.822;4.336;2022-09-03T03:20:13;21.50;99.90
21487;DHT22;10905;50.822;4.336;2022-09-03T03:22:38;21.50;99.90
21487;DHT22;10905;50.822;4.336;2022-09-03T03:25:04;21.50;99.90
21487;DHT22;10905;50.822;4.336;2022-09-03T03:27:30;21.50;99.90
21487;DHT22;10905;50.822;4.336;2022-09-03T03:29:55;21.30;99.90
21487;DHT22;10905;50.822;4.336;2022-09-03T03:32:22;21.40;99.90
21487;DHT22;10905;50.822;4.336;2022-09-03T03:34:47;21.40;99.90
21487;DHT22;10905;50.822;4.336;2022-09-03T03:37:13;21.40;99.90
21487;DHT22;10905;50.822;4.336;2022-09-03T03:39:38;21.30;99.90
21487;DHT22;10905;50.822;4.336;2022-09-03T03:42:04;21.10;99.90
21487;DHT22;10905;50.822;4.336;2022-09-03T03:44:29;21.10;99.90
21487;DHT22;10905;50.822;4.336;2022-09-03T03:46:55;20.90;99.90
21487;DHT22;10905;50.822;4.336;2022-09-03T03:49:21;20.80;99.90
21487;DHT22;10905;50.822;4.336;2022-09-03T03:51:46;20.80;99.90
21487;DHT22;10905;50.822;4.336;2022-09-03T03:54:12;20.90;99.90
21487;DHT22;10905;50.822;4.336;2022-09-03T03:56:37;20.90;99.90
21487;DHT22;10905;50.822;4.336;2022-09-03T03:59:03;20.90;99.90
21487;DHT22;10905;50.822;4.336;2022-09-03T04:01:28;20.80;99.90
21487;DHT22;10905;50.822;4.336;2022-09-03T04:03:54;20.70;99.90
21487;DHT22;10905;50.822;4.336;2022-09-03T04:06:20;20.80;99.90
21487;DHT22;10905;50.822;4.336;2022-09-03T04:08:46;20.90;99.90
21487;DHT22;10905;50.822;4.336;2022-09-03T04:11:13;20.80;99.90
21487;DHT22;10905;50.822;4.336;2022-09-03T04:13:40;20.70;99.90
21487;DHT22;10905;50.822;4.336;2022-09-03T04:16:16;20.50;99.90
21487;DHT22;10905;50.822;4.336;2022-09-03T04:18:42;20.40;99.90
21487;DHT22;10905;50.822;4.336;2022-09-03T04:21:09;20.30;99.90
21487;DHT22;10905;50.822;4.336;2022-09-03T04:23:35;20.30;99.90
21487;DHT22;10905;50.822;4.336;2022-09-03T04:26:01;20.30;99.90
21487;DHT22;10905;50.822;4.336;2022-09-03T04:28:27;20.20;99.90
21487;DHT22;10905;50.822;4.336;2022-09-03T04:30:52;20.40;99.90
21487;DHT22;10905;50.822;4.336;2022-09-03T04:33:18;20.40;99.90
21487;DHT22;10905;50.822;4.336;2022-09-03T04:35:44;20.30;99.90
21487;DHT22;10905;50.822;4.336;2022-09-03T04:38:09;20.40;99.90
21487;DHT22;10905;50.822;4.336;2022-09-03T04:40:35;20.30;99.90
21487;DHT22;10905;50.822;4.336;2022-09-03T04:43:01;20.40;99.90
21487;DHT22;10905;50.822;4.336;2022-09-03T04:45:27;20.50;99.90
21487;DHT22;10905;50.822;4.336;2022-09-03T04:47:59;20.50;99.90
21487;DHT22;10905;50.822;4.336;2022-09-03T04:50:25;19.70;99.90
21487;DHT22;10905;50.822;4.336;2022-09-03T04:52:58;20.40;99.90
21487;DHT22;10905;50.822;4.336;2022-09-03T04:55:24;20.40;99.90
21487;DHT22;10905;50.822;4.336;2022-09-03T04:57:50;20.40;99.90
21487;DHT22;10905;50.822;4.336;2022-09-03T05:00:16;20.40;99.90
21487;DHT22;10905;50.822;4.336;2022-09-03T05:02:43;20.40;99.90
21487;DHT22;10905;50.822;4.336;2022-09-03T05:05:10;20.40;99.90
21487;DHT22;10905;50.822;4.336;2022-09-03T05:07:36;20.40;99.90
21487;DHT22;10905;50.822;4.336;2022-09-03T05:10:06;20.40;99.90
21487;DHT22;10905;50.822;4.336;2022-09-03T05:12:31;20.40;99.90
21487;DHT22;10905;50.822;4.336;2022-09-03T05:14:57;20.50;99.90
21487;DHT22;10905;50.822;4.336;2022-09-03T05:17:24;20.50;99.90
21487;DHT22;10905;50.822;4.336;2022-09-03T05:19:50;20.50;99.90
21487;DHT22;10905;50.822;4.336;2022-09-03T05:22:15;20.50;99.90
21487;DHT22;10905;50.822;4.336;2022-09-03T05:24:45;20.50;99.90
21487;DHT22;10905;50.822;4.336;2022-09-03T05:27:11;20.60;99.90
21487;DHT22;10905;50.822;4.336;2022-09-03T05:29:36;20.60;99.90
21487;DHT22;10905;50.822;4.336;2022-09-03T05:32:02;20.60;99.90
21487;DHT22;10905;50.822;4.336;2022-09-03T05:34:28;20.70;99.90
21487;DHT22;10905;50.822;4.336;2022-09-03T05:36:53;20.70;99.90
21487;DHT22;10905;50.822;4.336;2022-09-03T05:39:20;20.70;99.90
21487;DHT22;10905;50.822;4.336;2022-09-03T05:41:46;20.80;99.90
21487;DHT22;10905;50.822;4.336;2022-09-03T05:44:14;20.80;99.90
21487;DHT22;10905;50.822;4.336;2022-09-03T05:46:40;20.90;99.90
21487;DHT22;10905;50.822;4.336;2022-09-03T05:49:05;21.00;99.90
21487;DHT22;10905;50.822;4.336;2022-09-03T05:51:31;20.90;99.90
21487;DHT22;10905;50.822;4.336;2022-09-03T05:53:57;21.00;99.90
21487;DHT22;10905;50.822;4.336;2022-09-03T05:56:23;21.10;99.90
21487;DHT22;10905;50.822;4.336;2022-09-03T05:58:53;21.00;99.90
21487;DHT22;10905;50.822;4.336;2022-09-03T06:01:23;21.10;99.90
21487;DHT22;10905;50.822;4.336;2022-09-03T06:03:53;21.10;99.90
21487;DHT22;10905;50.822;4.336;2022-09-03T06:06:19;21.10;99.90
21487;DHT22;10905;50.822;4.336;2022-09-03T06:08:50;21.20;99.90
21487;DHT22;10905;50.822;4.336;2022-09-03T06:11:15;21.30;99.90
21487;DHT22;10905;50.822;4.336;2022-09-03T06:13:41;21.20;99.90
21487;DHT22;10905;50.822;4.336;2022-09-03T06:16:08;21.20;99.90
21487;DHT22;10905;50.822;4.336;2022-09-03T06:18:34;21.20;99.90
21487;DHT22;10905;50.822;4.336;2022-09-03T06:21:04;21.20;99.90
21487;DHT22;10905;50.822;4.336;2022-09-03T06:23:30;21.30;99.90
21487;DHT22;10905;50.822;4.336;2022-09-03T06:26:09;21.20;99.90
21487;DHT22;10905;50.822;4.336;2022-09-03T06:28:36;21.30;99.90
21487;DHT22;10905;50.822;4.336;2022-09-03T06:31:02;21.20;99.90
21487;DHT22;10905;50.822;4.336;2022-09-03T06:33:29;21.30;99.90
21487;DHT22;10905;50.822;4.336;2022-09-03T06:35:58;21.40;99.90
21487;DHT22;10905;50.822;4.336;2022-09-03T06:38:24;21.50;99.90
21487;DHT22;10905;50.822;4.336;2022-09-03T06:40:51;21.50;99.90
21487;DHT22;10905;50.822;4.336;2022-09-03T06:43:16;21.50;99.90
21487;DHT22;10905;50.822;4.336;2022-09-03T06:45:42;21.50;99.90
21487;DHT22;10905;50.822;4.336;2022-09-03T06:48:08;21.50;99.90
21487;DHT22;10905;50.822;4.336;2022-09-03T06:50:33;21.50;99.90
21487;DHT22;10905;50.822;4.336;2022-09-03T06:52:58;21.70;99.90
21487;DHT22;10905;50.822;4.336;2022-09-03T06:55:24;21.80;99.90
21487;DHT22;10905;50.822;4.336;2022-09-03T06:57:49;21.80;99.90
21487;DHT22;10905;50.822;4.336;2022-09-03T07:00:20;21.70;99.90
21487;DHT22;10905;50.822;4.336;2022-09-03T07:02:46;21.70;99.90
21487;DHT22;10905;50.822;4.336;2022-09-03T07:05:13;21.70;99.90
21487;DHT22;10905;50.822;4.336;2022-09-03T07:07:38;21.90;99.90
21487;DHT22;10905;50.822;4.336;2022-09-03T07:10:04;21.70;99.90
21487;DHT22;10905;50.822;4.336;2022-09-03T07:12:30;21.70;99.90
21487;DHT22;10905;50.822;4.336;2022-09-03T07:14:56;21.70;99.90
21487;DHT22;10905;50.822;4.336;2022-09-03T07:17:22;21.60;99.90
21487;DHT22;10905;50.822;4.336;2022-09-03T07:19:48;21.70;99.90
21487;DHT22;10905;50.822;4.336;2022-09-03T07:22:13;21.80;99.90
21487;DHT22;10905;50.822;4.336;2022-09-03T07:24:39;21.80;99.90
21487;DHT22;10905;50.822;4.336;2022-09-03T07:27:04;21.80;99.90
21487;DHT22;10905;50.822;4.336;2022-09-03T07:29:31;22.00;99.90
21487;DHT22;10905;50.822;4.336;2022-09-03T07:31:56;21.90;99.90
21487;DHT22;10905;50.822;4.336;2022-09-03T07:34:22;22.10;99.90
21487;DHT22;10905;50.822;4.336;2022-09-03T07:36:51;22.20;99.90
21487;DHT22;10905;50.822;4.336;2022-09-03T07:39:18;22.10;99.90
21487;DHT22;10905;50.822;4.336;2022-09-03T07:41:44;22.30;99.90
21487;DHT22;10905;50.822;4.336;2022-09-03T07:44:11;22.20;99.90
21487;DHT22;10905;50.822;4.336;2022-09-03T07:46:37;22.20;99.90
21487;DHT22;10905;50.822;4.336;2022-09-03T07:49:03;22.10;99.90
21487;DHT22;10905;50.822;4.336;2022-09-03T07:51:34;22.30;99.90
21487;DHT22;10905;50.822;4.336;2022-09-03T07:54:00;22.60;99.90
21487;DHT22;10905;50.822;4.336;2022-09-03T07:56:27;22.50;99.90
21487;DHT22;10905;50.822;4.336;2022-09-03T07:58:55;22.60;99.90
21487;DHT22;10905;50.822;4.336;2022-09-03T08:01:21;22.80;99.90
21487;DHT22;10905;50.822;4.336;2022-09-03T08:03:48;22.90;99.90
21487;DHT22;10905;50.822;4.336;2022-09-03T08:06:15;22.80;99.90
21487;DHT22;10905;50.822;4.336;2022-09-03T08:08:40;23.00;99.90
21487;DHT22;10905;50.822;4.336;2022-09-03T08:11:07;23.20;99.90
21487;DHT22;10905;50.822;4.336;2022-09-03T08:13:45;23.10;99.90
21487;DHT22;10905;50.822;4.336;2022-09-03T08:16:11;22.80;99.90
21487;DHT22;10905;50.822;4.336;2022-09-03T08:18:37;23.10;99.90
21487;DHT22;10905;50.822;4.336;2022-09-03T08:21:10;23.10;99.90
21487;DHT22;10905;50.822;4.336;2022-09-03T08:23:38;23.30;99.90
21487;DHT22;10905;50.822;4.336;2022-09-03T08:26:04;22.90;99.90
21487;DHT22;10905;50.822;4.336;2022-09-03T08:28:30;23.00;99.90
21487;DHT22;10905;50.822;4.336;2022-09-03T08:30:57;23.00;99.90
21487;DHT22;10905;50.822;4.336;2022-09-03T08:33:22;23.10;99.90
21487;DHT22;10905;50.822;4.336;2022-09-03T08:36:05;23.20;99.90
21487;DHT22;10905;50.822;4.336;2022-09-03T08:38:31;23.10;99.90
21487;DHT22;10905;50.822;4.336;2022-09-03T08:41:09;22.90;99.90
21487;DHT22;10905;50.822;4.336;2022-09-03T08:43:40;22.90;99.90
21487;DHT22;10905;50.822;4.336;2022-09-03T08:46:10;23.10;99.90
21487;DHT22;10905;50.822;4.336;2022-09-03T08:48:36;23.10;99.90
21487;DHT22;10905;50.822;4.336;2022-09-03T08:51:01;23.30;99.90
21487;DHT22;10905;50.822;4.336;2022-09-03T08:56:07;23.20;99.90
21487;DHT22;10905;50.822;4.336;2022-09-03T08:58:34;23.20;99.90
21487;DHT22;10905;50.822;4.336;2022-09-03T09:01:03;23.20;99.90
21487;DHT22;10905;50.822;4.336;2022-09-03T09:13:55;23.80;99.90
21487;DHT22;10905;50.822;4.336;2022-09-03T09:16:58;23.70;99.90
21487;DHT22;10905;50.822;4.336;2022-09-03T09:21:51;23.20;99.90
21487;DHT22;10905;50.822;4.336;2022-09-03T09:24:21;23.30;99.90
21487;DHT22;10905;50.822;4.336;2022-09-03T09:26:48;23.50;99.90
21487;DHT22;10905;50.822;4.336;2022-09-03T09:29:14;23.70;99.90
21487;DHT22;10905;50.822;4.336;2022-09-03T09:31:40;23.70;99.90
21487;DHT22;10905;50.822;4.336;2022-09-03T09:34:09;23.70;99.90
21487;DHT22;10905;50.822;4.336;2022-09-03T09:36:37;23.80;99.90
21487;DHT22;10905;50.822;4.336;2022-09-03T09:39:10;23.90;99.90
21487;DHT22;10905;50.822;4.336;2022-09-03T09:41:36;24.00;99.90
21487;DHT22;10905;50.822;4.336;2022-09-03T09:44:02;24.20;99.90
21487;DHT22;10905;50.822;4.336;2022-09-03T09:46:36;24.30;99.90
21487;DHT22;10905;50.822;4.336;2022-09-03T09:49:07;24.20;99.90
21487;DHT22;10905;50.822;4.336;2022-09-03T09:51:42;24.10;99.90
21487;DHT22;10905;50.822;4.336;2022-09-03T09:54:12;24.10;99.90
21487;DHT22;10905;50.822;4.336;2022-09-03T09:56:40;24.10;99.90
21487;DHT22;10905;50.822;4.336;2022-09-03T09:59:13;24.20;99.90
21487;DHT22;10905;50.822;4.336;2022-09-03T10:01:40;24.40;99.90
21487;DHT22;10905;50.822;4.336;2022-09-03T10:06:35;24.50;99.90
21487;DHT22;10905;50.822;4.336;2022-09-03T10:09:25;24.50;99.90
21487;DHT22;10905;50.822;4.336;2022-09-03T10:14:24;24.30;99.90
21487;DHT22;10905;50.822;4.336;2022-09-03T10:16:59;24.60;99.90
21487;DHT22;10905;50.822;4.336;2022-09-03T10:19:42;24.80;99.90
21487;DHT22;10905;50.822;4.336;2022-09-03T10:22:30;24.90;99.90
21487;DHT22;10905;50.822;4.336;2022-09-03T10:24:59;25.10;99.90
21487;DHT22;10905;50.822;4.336;2022-09-03T10:27:26;25.30;99.90
21487;DHT22;10905;50.822;4.336;2022-09-03T10:29:53;25.30;99.90
21487;DHT22;10905;50.822;4.336;2022-09-03T10:40:21;25.90;99.90
21487;DHT22;10905;50.822;4.336;2022-09-03T10:45:35;25.80;99.90
21487;DHT22;10905;50.822;4.336;2022-09-03T10:56:01;25.80;99.90
21487;DHT22;10905;50.822;4.336;2022-09-03T11:01:09;26.20;99.90
21487;DHT22;10905;50.822;4.336;2022-09-03T11:04:24;26.30;99.90
21487;DHT22;10905;50.822;4.336;2022-09-03T11:06:23;26.60;99.90
21487;DHT22;10905;50.822;4.336;2022-09-03T11:08:55;26.70;99.90
21487;DHT22;10905;50.822;4.336;2022-09-03T11:11:28;26.60;99.90
21487;DHT22;10905;50.822;4.336;2022-09-03T11:14:07;26.60;99.90
21487;DHT22;10905;50.822;4.336;2022-09-03T11:16:35;26.80;99.90
21487;DHT22;10905;50.822;4.336;2022-09-03T11:19:03;26.90;99.90
21487;DHT22;10905;50.822;4.336;2022-09-03T11:21:30;26.70;99.90
21487;DHT22;10905;50.822;4.336;2022-09-03T11:24:42;26.70;99.90
21487;DHT22;10905;50.822;4.336;2022-09-03T11:26:43;26.50;99.90
21487;DHT22;10905;50.822;4.336;2022-09-03T11:29:19;26.50;99.90
21487;DHT22;10905;50.822;4.336;2022-09-03T11:34:31;26.30;99.90
21487;DHT22;10905;50.822;4.336;2022-09-03T11:37:05;26.20;99.90
21487;DHT22;10905;50.822;4.336;2022-09-03T11:42:00;26.00;99.90
21487;DHT22;10905;50.822;4.336;2022-09-03T11:44:38;25.90;99.90
21487;DHT22;10905;50.822;4.336;2022-09-03T11:50:04;26.30;99.90
21487;DHT22;10905;50.822;4.336;2022-09-03T11:52:30;26.20;99.90
21487;DHT22;10905;50.822;4.336;2022-09-03T11:55:05;26.20;99.90
21487;DHT22;10905;50.822;4.336;2022-09-03T11:57:31;26.30;99.90
21487;DHT22;10905;50.822;4.336;2022-09-03T12:00:08;26.50;99.90
21487;DHT22;10905;50.822;4.336;2022-09-03T12:02:35;26.90;99.90
21487;DHT22;10905;50.822;4.336;2022-09-03T12:12:57;26.40;99.90
21487;DHT22;10905;50.822;4.336;2022-09-03T12:18:19;26.60;99.90
21487;DHT22;10905;50.822;4.336;2022-09-03T12:23:27;26.80;99.90
21487;DHT22;10905;50.822;4.336;2022-09-03T12:25:53;26.90;99.90
21487;DHT22;10905;50.822;4.336;2022-09-03T12:28:20;27.00;99.90
21487;DHT22;10905;50.822;4.336;2022-09-03T12:30:51;26.60;99.90
21487;DHT22;10905;50.822;4.336;2022-09-03T12:33:18;26.90;99.90
21487;DHT22;10905;50.822;4.336;2022-09-03T12:36:08;27.00;99.90
21487;DHT22;10905;50.822;4.336;2022-09-03T12:38:30;27.20;99.90
21487;DHT22;10905;50.822;4.336;2022-09-03T12:40:56;27.60;99.90
21487;DHT22;10905;50.822;4.336;2022-09-03T12:43:26;27.80;99.90
21487;DHT22;10905;50.822;4.336;2022-09-03T12:45:52;28.20;99.90
21487;DHT22;10905;50.822;4.336;2022-09-03T12:48:18;28.40;99.90
21487;DHT22;10905;50.822;4.336;2022-09-03T12:50:44;28.40;99.90
21487;DHT22;10905;50.822;4.336;2022-09-03T12:53:16;28.60;99.90
21487;DHT22;10905;50.822;4.336;2022-09-03T12:55:46;28.80;99.90
21487;DHT22;10905;50.822;4.336;2022-09-03T12:58:14;29.00;99.90
21487;DHT22;10905;50.822;4.336;2022-09-03T13:00:42;28.70;99.90
21487;DHT22;10905;50.822;4.336;2022-09-03T13:05:58;28.40;99.90
21487;DHT22;10905;50.822;4.336;2022-09-03T13:08:29;28.50;99.90
21487;DHT22;10905;50.822;4.336;2022-09-03T13:10:57;28.50;99.90
21487;DHT22;10905;50.822;4.336;2022-09-03T13:13:24;28.50;99.90
21487;DHT22;10905;50.822;4.336;2022-09-03T13:18:30;28.40;99.90
21487;DHT22;10905;50.822;4.336;2022-09-03T13:23:38;28.30;99.90
21487;DHT22;10905;50.822;4.336;2022-09-03T13:33:41;28.70;99.90
21487;DHT22;10905;50.822;4.336;2022-09-03T13:41:18;28.80;99.80
21487;DHT22;10905;50.822;4.336;2022-09-03T13:43:47;28.60;99.40
21487;DHT22;10905;50.822;4.336;2022-09-03T13:46:20;28.60;99.20
21487;DHT22;10905;50.822;4.336;2022-09-03T13:48:47;28.40;99.30
21487;DHT22;10905;50.822;4.336;2022-09-03T13:51:37;28.30;99.50
21487;DHT22;10905;50.822;4.336;2022-09-03T13:59:11;27.60;99.90
21487;DHT22;10905;50.822;4.336;2022-09-03T14:04:13;27.30;99.90
21487;DHT22;10905;50.822;4.336;2022-09-03T14:06:43;27.30;99.90
21487;DHT22;10905;50.822;4.336;2022-09-03T14:09:18;27.40;99.90
21487;DHT22;10905;50.822;4.336;2022-09-03T14:16:58;27.20;99.90
21487;DHT22;10905;50.822;4.336;2022-09-03T14:19:43;27.20;99.90
21487;DHT22;10905;50.822;4.336;2022-09-03T14:24:56;27.30;99.90
21487;DHT22;10905;50.822;4.336;2022-09-03T14:27:31;27.20;99.90
21487;DHT22;10905;50.822;4.336;2022-09-03T14:30:00;27.10;99.90
21487;DHT22;10905;50.822;4.336;2022-09-03T14:32:27;27.20;99.90
21487;DHT22;10905;50.822;4.336;2022-09-03T14:35:11;27.30;99.90
21487;DHT22;10905;50.822;4.336;2022-09-03T14:56:08;26.60;99.90
21487;DHT22;10905;50.822;4.336;2022-09-03T15:01:17;26.60;99.90
21487;DHT22;10905;50.822;4.336;2022-09-03T15:06:33;26.70;99.90
21487;DHT22;10905;50.822;4.336;2022-09-03T15:11:30;26.60;99.90
21487;DHT22;10905;50.822;4.336;2022-09-03T15:14:04;26.50;99.90
21487;DHT22;10905;50.822;4.336;2022-09-03T15:16:38;26.60;99.90
21487;DHT22;10905;50.822;4.336;2022-09-03T15:19:09;26.60;99.90
21487;DHT22;10905;50.822;4.336;2022-09-03T15:26:56;26.80;99.90
21487;DHT22;10905;50.822;4.336;2022-09-03T15:37:09;26.30;99.90
21487;DHT22;10905;50.822;4.336;2022-09-03T15:39:37;25.70;99.90
21487;DHT22;10905;50.822;4.336;2022-09-03T15:42:09;24.90;99.90
21487;DHT22;10905;50.822;4.336;2022-09-03T15:44:44;24.30;99.90
21487;DHT22;10905;50.822;4.336;2022-09-03T15:47:12;24.20;99.90
21487;DHT22;10905;50.822;4.336;2022-09-03T15:49:54;24.00;99.90
21487;DHT22;10905;50.822;4.336;2022-09-03T15:52:30;23.80;99.90
21487;DHT22;10905;50.822;4.336;2022-09-03T15:55:11;23.80;99.90
21487;DHT22;10905;50.822;4.336;2022-09-03T15:57:40;23.80;99.90
21487;DHT22;10905;50.822;4.336;2022-09-03T16:00:17;23.80;99.90
21487;DHT22;10905;50.822;4.336;2022-09-03T16:05:34;24.10;99.90
21487;DHT22;10905;50.822;4.336;2022-09-03T16:08:06;24.20;99.90
21487;DHT22;10905;50.822;4.336;2022-09-03T16:10:39;24.20;99.90
21487;DHT22;10905;50.822;4.336;2022-09-03T16:16:01;24.30;99.90
21487;DHT22;10905;50.822;4.336;2022-09-03T16:19:14;24.30;99.90
21487;DHT22;10905;50.822;4.336;2022-09-03T16:23:58;24.50;99.90
21487;DHT22;10905;50.822;4.336;2022-09-03T16:49:50;24.40;99.90
21487;DHT22;10905;50.822;4.336;2022-09-03T16:57:33;24.40;99.90
21487;DHT22;10905;50.822;4.336;2022-09-03T17:00:14;24.20;99.90
21487;DHT22;10905;50.822;4.336;2022-09-03T17:02:53;24.20;99.90
21487;DHT22;10905;50.822;4.336;2022-09-03T17:15:48;23.80;99.90
21487;DHT22;10905;50.822;4.336;2022-09-03T17:21:04;23.70;99.90
21487;DHT22;10905;50.822;4.336;2022-09-03T17:33:53;23.20;99.90
21487;DHT22;10905;50.822;4.336;2022-09-03T17:36:22;23.00;99.90
21487;DHT22;10905;50.822;4.336;2022-09-03T17:39:02;22.90;99.90
21487;DHT22;10905;50.822;4.336;2022-09-03T17:54:53;22.40;99.90
21487;DHT22;10905;50.822;4.336;2022-09-03T18:13:05;22.40;99.90
21487;DHT22;10905;50.822;4.336;2022-09-03T18:15:47;22.50;99.90
21487;DHT22;10905;50.822;4.336;2022-09-03T18:18:26;22.40;99.90
21487;DHT22;10905;50.822;4.336;2022-09-03T18:20:52;22.40;99.90
21487;DHT22;10905;50.822;4.336;2022-09-03T18:23:44;22.30;99.90
21487;DHT22;10905;50.822;4.336;2022-09-03T18:26:31;22.40;99.90
21487;DHT22;10905;50.822;4.336;2022-09-03T18:32:08;22.50;99.90
21487;DHT22;10905;50.822;4.336;2022-09-03T18:34:52;22.50;99.90
21487;DHT22;10905;50.822;4.336;2022-09-03T18:37:36;22.50;99.90
21487;DHT22;10905;50.822;4.336;2022-09-03T18:40:22;22.60;99.90
21487;DHT22;10905;50.822;4.336;2022-09-03T18:49:01;22.50;99.90
21487;DHT22;10905;50.822;4.336;2022-09-03T18:57:21;22.50;99.90
21487;DHT22;10905;50.822;4.336;2022-09-03T19:00:07;22.30;99.90
21487;DHT22;10905;50.822;4.336;2022-09-03T19:09:02;22.10;99.90
21487;DHT22;10905;50.822;4.336;2022-09-03T19:15:00;22.20;99.90
21487;DHT22;10905;50.822;4.336;2022-09-03T19:20:32;22.10;99.90
21487;DHT22;10905;50.822;4.336;2022-09-03T19:23:18;22.00;99.90
21487;DHT22;10905;50.822;4.336;2022-09-03T19:26:10;22.10;99.90
21487;DHT22;10905;50.822;4.336;2022-09-03T19:28:59;22.10;99.90
21487;DHT22;10905;50.822;4.336;2022-09-03T19:31:49;22.00;99.90
21487;DHT22;10905;50.822;4.336;2022-09-03T19:38:03;22.00;99.90
21487;DHT22;10905;50.822;4.336;2022-09-03T19:46:41;22.00;99.90
21487;DHT22;10905;50.822;4.336;2022-09-03T19:55:32;22.00;99.90
21487;DHT22;10905;50.822;4.336;2022-09-03T19:58:18;22.00;99.90
21487;DHT22;10905;50.822;4.336;2022-09-03T20:01:03;21.90;99.90
21487;DHT22;10905;50.822;4.336;2022-09-03T20:03:48;22.00;99.90
21487;DHT22;10905;50.822;4.336;2022-09-03T20:06:32;21.90;99.90
21487;DHT22;10905;50.822;4.336;2022-09-03T20:09:17;21.90;99.90
21487;DHT22;10905;50.822;4.336;2022-09-03T20:12:04;21.90;99.90
21487;DHT22;10905;50.822;4.336;2022-09-03T20:14:32;21.80;99.90
21487;DHT22;10905;50.822;4.336;2022-09-03T20:17:18;21.80;99.90
21487;DHT22;10905;50.822;4.336;2022-09-03T20:22:36;21.80;99.90
21487;DHT22;10905;50.822;4.336;2022-09-03T20:30:43;21.80;99.90
21487;DHT22;10905;50.822;4.336;2022-09-03T20:51:08;21.90;99.90
21487;DHT22;10905;50.822;4.336;2022-09-03T20:58:59;21.90;99.90
21487;DHT22;10905;50.822;4.336;2022-09-03T21:17:26;21.70;99.90
21487;DHT22;10905;50.822;4.336;2022-09-03T21:22:12;21.70;99.90
21487;DHT22;10905;50.822;4.336;2022-09-03T21:24:44;21.70;99.90
21487;DHT22;10905;50.822;4.336;2022-09-03T21:27:12;21.60;99.90
21487;DHT22;10905;50.822;4.336;2022-09-03T21:29:43;21.50;99.90
21487;DHT22;10905;50.822;4.336;2022-09-03T21:32:15;21.40;99.90
21487;DHT22;10905;50.822;4.336;2022-09-03T21:37:22;21.40;99.90
21487;DHT22;10905;50.822;4.336;2022-09-03T21:39:54;21.40;99.90
21487;DHT22;10905;50.822;4.336;2022-09-03T21:47:32;21.40;99.90
21487;DHT22;10905;50.822;4.336;2022-09-03T21:50:04;21.40;99.90
21487;DHT22;10905;50.822;4.336;2022-09-03T21:52:35;21.40;99.90
21487;DHT22;10905;50.822;4.336;2022-09-03T21:55:09;21.40;99.90
21487;DHT22;10905;50.822;4.336;2022-09-03T21:57:38;21.30;99.90
21487;DHT22;10905;50.822;4.336;2022-09-03T22:00:13;21.30;99.90
21487;DHT22;10905;50.822;4.336;2022-09-03T22:02:43;21.30;99.90
21487;DHT22;10905;50.822;4.336;2022-09-03T22:05:10;21.30;99.90
21487;DHT22;10905;50.822;4.336;2022-09-03T22:10:36;21.30;99.90
21487;DHT22;10905;50.822;4.336;2022-09-03T22:15:42;21.30;99.90
21487;DHT22;10905;50.822;4.336;2022-09-03T22:18:18;21.30;99.90
21487;DHT22;10905;50.822;4.336;2022-09-03T22:20:50;21.30;99.90
21487;DHT22;10905;50.822;4.336;2022-09-03T22:23:36;21.20;99.90
21487;DHT22;10905;50.822;4.336;2022-09-03T22:26:54;21.20;99.90